createdAt,value
2023-07-14T00:01:18.441Z,89.70
2023-07-14T00:03:45.342Z,90.00
2023-07-14T00:06:12.889Z,90.00
2023-07-14T00:08:42.664Z,90.00
2023-07-14T00:11:14.454Z,90.00
2023-07-14T00:13:43.246Z,90.10
2023-07-14T00:16:14.031Z,90.10
2023-07-14T00:18:41.319Z,90.20
2023-07-14T00:21:16.858Z,90.20
2023-07-14T00:23:44.583Z,90.20
2023-07-14T00:26:15.319Z,90.20
2023-07-14T00:28:43.806Z,90.30
2023-07-14T00:31:14.092Z,90.40
2023-07-14T00:33:42.447Z,90.50
2023-07-14T00:36:09.516Z,90.60
2023-07-14T00:38:36.520Z,90.70
2023-07-14T00:41:04.421Z,90.70
2023-07-14T00:43:32.357Z,90.80
2023-07-14T00:46:00.886Z,90.80
2023-07-14T00:48:30.472Z,90.90
2023-07-14T00:51:02.218Z,90.90
2023-07-14T00:53:35.296Z,91.00
2023-07-14T00:56:21.481Z,91.00
2023-07-14T00:58:51.987Z,91.10
2023-07-14T01:01:26.510Z,91.10
2023-07-14T01:03:56.667Z,91.20
2023-07-14T01:06:27.206Z,91.20
2023-07-14T01:08:58.832Z,91.30
2023-07-14T01:11:31.378Z,91.30
2023-07-14T01:14:02.441Z,91.40
2023-07-14T01:16:33.565Z,91.40
2023-07-14T01:19:01.719Z,91.40
2023-07-14T01:21:28.918Z,91.50
2023-07-14T01:24:03.191Z,91.50
2023-07-14T01:26:49.282Z,91.70
2023-07-14T01:29:16.847Z,91.80
2023-07-14T01:31:44.012Z,91.90
2023-07-14T01:34:11.048Z,92.10
2023-07-14T01:36:38.216Z,92.20
2023-07-14T01:39:05.136Z,92.30
2023-07-14T01:41:32.100Z,92.50
2023-07-14T01:44:04.540Z,92.60
2023-07-14T01:46:32.264Z,92.60
2023-07-14T01:49:11.396Z,92.70
2023-07-14T01:51:43.758Z,92.70
2023-07-14T01:54:26.769Z,92.80
2023-07-14T01:56:56.592Z,93.00
2023-07-14T01:59:29.778Z,93.00
2023-07-14T02:02:03.470Z,93.30
2023-07-14T02:04:34.261Z,93.50
2023-07-14T02:07:04.597Z,93.60
2023-07-14T02:09:34.168Z,93.70
2023-07-14T02:12:05.183Z,93.70
2023-07-14T02:14:41.340Z,93.70
2023-07-14T02:17:26.488Z,93.60
2023-07-14T02:19:54.285Z,93.70
2023-07-14T02:22:22.902Z,93.60
2023-07-14T02:24:50.827Z,93.80
2023-07-14T02:27:18.213Z,93.80
2023-07-14T02:29:46.615Z,93.90
2023-07-14T02:32:19.576Z,93.90
2023-07-14T02:34:52.752Z,94.00
2023-07-14T02:37:52.256Z,94.00
2023-07-14T02:40:19.981Z,94.00
2023-07-14T02:42:46.762Z,93.90
2023-07-14T02:45:17.781Z,93.80
2023-07-14T02:47:46.727Z,93.80
2023-07-14T02:50:13.669Z,93.70
2023-07-14T02:52:40.602Z,93.60
2023-07-14T02:55:08.249Z,93.40
2023-07-14T02:57:35.884Z,93.40
2023-07-14T03:00:02.853Z,93.30
2023-07-14T03:02:31.167Z,93.20
2023-07-14T03:04:58.081Z,93.20
2023-07-14T03:07:25.064Z,93.20
2023-07-14T03:09:52.534Z,93.10
2023-07-14T03:12:19.457Z,93.10
2023-07-14T03:14:46.378Z,93.00
2023-07-14T03:17:13.313Z,93.10
2023-07-14T03:19:41.750Z,93.20
2023-07-14T03:22:09.062Z,93.30
2023-07-14T03:24:35.922Z,93.30
2023-07-14T03:27:03.406Z,93.40
2023-07-14T03:29:30.248Z,93.50
2023-07-14T03:31:57.136Z,93.40
2023-07-14T03:34:24.171Z,93.50
2023-07-14T03:36:52.432Z,93.50
2023-07-14T03:39:23.233Z,93.50
2023-07-14T03:41:50.395Z,93.60
2023-07-14T03:44:17.333Z,93.70
2023-07-14T03:46:44.410Z,93.80
2023-07-14T03:49:11.352Z,93.90
2023-07-14T03:51:38.622Z,94.10
2023-07-14T03:54:06.895Z,94.20
2023-07-14T03:56:33.756Z,94.20
2023-07-14T03:59:00.664Z,94.30
2023-07-14T04:01:27.601Z,94.40
2023-07-14T04:03:55.023Z,94.50
2023-07-14T04:06:22.282Z,94.60
2023-07-14T04:08:52.946Z,94.80
2023-07-14T04:11:21.150Z,95.00
2023-07-14T04:13:48.050Z,95.20
2023-07-14T04:16:15.256Z,95.30
2023-07-14T04:18:42.639Z,95.50
2023-07-14T04:21:11.488Z,95.60
2023-07-14T04:23:38.675Z,95.70
2023-07-14T04:26:07.690Z,95.80
2023-07-14T04:28:36.619Z,96.00
2023-07-14T04:31:03.514Z,96.10
2023-07-14T04:33:30.882Z,96.20
2023-07-14T04:35:58.763Z,96.20
2023-07-14T04:38:25.869Z,96.30
2023-07-14T04:40:53.186Z,96.10
2023-07-14T04:43:22.234Z,96.10
2023-07-14T04:45:52.680Z,96.10
2023-07-14T04:48:23.243Z,95.90
2023-07-14T04:50:50.337Z,95.80
2023-07-14T04:53:18.237Z,95.70
2023-07-14T04:55:46.584Z,95.70
2023-07-14T04:58:15.386Z,95.60
2023-07-14T05:00:44.166Z,95.50
2023-07-14T05:03:12.467Z,95.40
2023-07-14T05:05:39.350Z,95.30
2023-07-14T05:08:06.251Z,95.20
2023-07-14T05:10:33.844Z,95.50
2023-07-14T05:13:01.404Z,95.10
2023-07-14T05:15:28.543Z,95.10
2023-07-14T05:17:55.726Z,95.00
2023-07-14T05:20:24.443Z,95.00
2023-07-14T05:22:53.442Z,95.10
2023-07-14T05:25:21.720Z,95.10
2023-07-14T05:27:49.368Z,95.10
2023-07-14T05:30:18.798Z,95.10
2023-07-14T05:32:47.069Z,95.10
2023-07-14T05:35:15.049Z,95.00
2023-07-14T05:37:44.350Z,94.90
2023-07-14T05:40:13.586Z,94.80
2023-07-14T05:42:40.677Z,94.70
2023-07-14T05:45:08.925Z,94.60
2023-07-14T05:47:37.834Z,94.50
2023-07-14T05:50:06.455Z,94.50
2023-07-14T05:52:36.645Z,94.50
2023-07-14T05:55:06.324Z,94.40
2023-07-14T05:57:33.889Z,94.30
2023-07-14T06:00:00.739Z,94.20
2023-07-14T06:02:27.743Z,94.10
2023-07-14T06:04:54.660Z,94.00
2023-07-14T06:07:21.612Z,93.80
2023-07-14T06:09:49.038Z,93.70
2023-07-14T06:12:17.285Z,93.70
2023-07-14T06:14:44.139Z,93.50
2023-07-14T06:17:12.047Z,93.40
2023-07-14T06:19:38.957Z,93.30
2023-07-14T06:22:07.754Z,93.30
2023-07-14T06:24:38.688Z,93.30
2023-07-14T06:27:09.142Z,93.10
2023-07-14T06:29:38.829Z,92.90
2023-07-14T06:32:06.521Z,92.80
2023-07-14T06:34:33.722Z,92.70
2023-07-14T06:37:00.762Z,92.60
2023-07-14T06:39:27.615Z,92.50
2023-07-14T06:41:54.459Z,92.40
2023-07-14T06:44:26.496Z,92.20
2023-07-14T06:46:55.385Z,92.10
2023-07-14T06:49:25.121Z,92.10
2023-07-14T06:51:54.689Z,92.00
2023-07-14T06:54:21.529Z,91.90
2023-07-14T06:56:48.433Z,91.80
2023-07-14T06:59:15.322Z,91.70
2023-07-14T07:01:42.437Z,91.60
2023-07-14T07:04:10.672Z,91.60
2023-07-14T07:06:37.632Z,91.50
2023-07-14T07:09:07.580Z,91.30
2023-07-14T07:11:34.774Z,91.20
2023-07-14T07:14:01.662Z,91.10
2023-07-14T07:16:28.575Z,91.00
2023-07-14T07:18:56.500Z,91.00
2023-07-14T07:21:24.810Z,91.00
2023-07-14T07:23:51.839Z,90.90
2023-07-14T07:26:18.879Z,90.90
2023-07-14T07:28:45.845Z,90.80
2023-07-14T07:31:12.908Z,90.80
2023-07-14T07:33:39.950Z,90.90
2023-07-14T07:36:16.906Z,90.50
2023-07-14T07:38:48.212Z,90.40
2023-07-14T07:41:15.950Z,90.20
2023-07-14T07:43:43.281Z,90.10
2023-07-14T07:46:10.892Z,90.00
2023-07-14T07:48:38.242Z,89.90
2023-07-14T07:51:06.226Z,89.20
2023-07-14T07:53:33.971Z,88.40
2023-07-14T07:56:02.949Z,87.40
2023-07-14T07:58:30.750Z,86.70
2023-07-14T08:01:00.532Z,86.60
2023-07-14T08:03:27.871Z,86.60
2023-07-14T08:05:59.445Z,86.60
2023-07-14T08:08:26.509Z,86.50
2023-07-14T08:10:53.649Z,86.50
2023-07-14T08:13:21.911Z,86.20
2023-07-14T08:15:50.979Z,85.70
2023-07-14T08:18:19.638Z,85.50
2023-07-14T08:20:49.192Z,84.90
2023-07-14T08:23:17.547Z,84.50
2023-07-14T08:25:44.941Z,84.00
2023-07-14T08:28:12.161Z,83.40
2023-07-14T08:30:40.517Z,82.70
2023-07-14T08:33:07.633Z,82.10
2023-07-14T08:35:34.570Z,81.60
2023-07-14T08:38:01.405Z,81.30
2023-07-14T08:40:31.464Z,81.10
2023-07-14T08:43:16.144Z,80.70
2023-07-14T08:45:52.961Z,80.10
2023-07-14T08:48:29.852Z,79.60
2023-07-14T08:51:03.098Z,79.20
2023-07-14T08:53:32.480Z,79.20
2023-07-14T08:56:03.390Z,79.10
2023-07-14T08:58:32.473Z,78.60
2023-07-14T09:01:10.076Z,78.10
2023-07-14T09:03:43.236Z,77.70
2023-07-14T09:06:24.387Z,77.30
2023-07-14T09:08:52.475Z,76.80
2023-07-14T09:11:32.238Z,76.40
2023-07-14T09:14:10.904Z,75.90
2023-07-14T09:16:46.784Z,75.40
2023-07-14T09:19:22.158Z,75.10
2023-07-14T09:21:56.629Z,74.90
2023-07-14T09:24:32.397Z,74.40
2023-07-14T09:26:59.399Z,73.70
2023-07-14T09:29:38.183Z,73.50
2023-07-14T09:32:12.741Z,72.90
2023-07-14T09:34:44.070Z,72.60
2023-07-14T09:37:18.073Z,72.50
2023-07-14T09:39:46.854Z,72.40
2023-07-14T09:42:20.026Z,72.10
2023-07-14T09:44:48.350Z,71.90
2023-07-14T09:47:19.892Z,71.90
2023-07-14T09:49:53.130Z,72.00
2023-07-14T09:52:24.697Z,71.80
2023-07-14T09:54:54.182Z,71.40
2023-07-14T09:57:37.769Z,71.10
2023-07-14T10:00:18.212Z,71.50
2023-07-14T10:02:51.478Z,70.30
2023-07-14T10:05:38.078Z,69.70
2023-07-14T10:08:06.866Z,69.30
2023-07-14T10:10:39.922Z,69.40
2023-07-14T10:13:18.288Z,69.40
2023-07-14T10:15:52.741Z,69.10
2023-07-14T10:18:21.054Z,68.70
2023-07-14T10:20:58.633Z,68.40
2023-07-14T10:23:26.613Z,67.90
2023-07-14T10:25:55.660Z,67.80
2023-07-14T10:28:29.001Z,67.60
2023-07-14T10:31:19.498Z,67.70
2023-07-14T10:33:59.587Z,67.40
2023-07-14T10:36:31.731Z,67.40
2023-07-14T10:39:05.681Z,67.20
2023-07-14T10:41:32.720Z,67.10
2023-07-14T10:44:04.307Z,66.80
2023-07-14T10:46:37.800Z,66.80
2023-07-14T10:49:22.339Z,66.60
2023-07-14T10:51:53.799Z,66.30
2023-07-14T10:54:24.867Z,66.20
2023-07-14T10:56:59.415Z,66.20
2023-07-14T10:59:32.412Z,66.10
2023-07-14T11:02:12.858Z,66.00
2023-07-14T11:04:44.862Z,65.80
2023-07-14T11:07:17.260Z,66.00
2023-07-14T11:09:44.219Z,66.00
2023-07-14T11:12:23.642Z,66.00
2023-07-14T11:14:57.641Z,66.40
2023-07-14T11:17:32.445Z,66.60
2023-07-14T11:20:13.630Z,66.30
2023-07-14T11:22:56.985Z,66.20
2023-07-14T11:25:30.358Z,66.30
2023-07-14T11:28:02.432Z,66.30
2023-07-14T11:30:33.797Z,66.30
2023-07-14T11:33:07.211Z,66.30
2023-07-14T11:35:40.279Z,66.30
2023-07-14T11:38:20.928Z,66.60
2023-07-14T11:40:50.253Z,67.00
2023-07-14T11:43:21.661Z,67.20
2023-07-14T11:45:56.329Z,67.40
2023-07-14T11:48:25.706Z,67.50
2023-07-14T11:51:13.311Z,67.50
2023-07-14T11:53:42.804Z,67.50
2023-07-14T11:56:23.213Z,67.60
2023-07-14T11:59:04.636Z,67.60
2023-07-14T12:01:32.493Z,67.60
2023-07-14T12:04:28.538Z,67.70
2023-07-14T12:07:14.218Z,67.70
2023-07-14T12:10:01.383Z,67.70
2023-07-14T12:12:31.299Z,67.50
2023-07-14T12:14:58.210Z,67.40
2023-07-14T12:17:46.871Z,67.30
2023-07-14T12:20:30.148Z,67.00
2023-07-14T12:23:25.536Z,67.00
2023-07-14T12:25:59.109Z,67.70
2023-07-14T12:28:31.559Z,66.70
2023-07-14T12:31:02.213Z,66.20
2023-07-14T12:33:29.144Z,66.00
2023-07-14T12:35:56.044Z,65.80
2023-07-14T12:38:26.265Z,65.50
2023-07-14T12:40:56.059Z,65.00
2023-07-14T12:43:36.053Z,64.30
2023-07-14T12:46:11.583Z,64.10
2023-07-14T12:48:40.026Z,63.90
2023-07-14T12:51:17.412Z,63.30
2023-07-14T12:53:50.491Z,63.10
2023-07-14T12:56:17.492Z,62.80
2023-07-14T12:58:44.460Z,62.60
2023-07-14T13:01:11.574Z,62.50
2023-07-14T13:03:39.541Z,62.30
2023-07-14T13:06:06.864Z,62.10
2023-07-14T13:08:34.042Z,62.10
2023-07-14T13:11:06.993Z,61.90
2023-07-14T13:13:40.537Z,62.00
2023-07-14T13:16:11.345Z,62.00
2023-07-14T13:18:38.408Z,61.60
2023-07-14T13:21:26.355Z,61.10
2023-07-14T13:23:56.380Z,61.00
2023-07-14T13:26:48.690Z,61.00
2023-07-14T13:29:18.799Z,60.90
2023-07-14T13:31:47.347Z,60.60
2023-07-14T13:34:22.284Z,60.30
2023-07-14T13:36:51.963Z,59.90
2023-07-14T13:39:23.909Z,59.70
2023-07-14T13:41:57.175Z,59.80
2023-07-14T13:44:46.373Z,59.70
2023-07-14T13:47:18.977Z,59.60
2023-07-14T13:49:47.024Z,58.70
2023-07-14T13:52:17.038Z,58.50
2023-07-14T13:54:49.684Z,58.40
2023-07-14T13:57:17.989Z,58.20
2023-07-14T13:59:45.752Z,57.80
2023-07-14T14:02:25.085Z,57.70
2023-07-14T14:04:52.991Z,57.70
2023-07-14T14:07:20.184Z,57.60
2023-07-14T14:09:47.167Z,57.30
2023-07-14T14:12:15.372Z,57.10
2023-07-14T14:14:44.371Z,57.20
2023-07-14T14:17:34.807Z,57.20
2023-07-14T14:20:02.638Z,57.20
2023-07-14T14:22:30.602Z,57.10
2023-07-14T14:24:57.659Z,56.70
2023-07-14T14:27:24.684Z,56.70
2023-07-14T14:29:52.948Z,56.60
2023-07-14T14:32:24.217Z,56.60
2023-07-14T14:34:55.765Z,56.60
2023-07-14T14:37:22.675Z,56.60
2023-07-14T14:39:49.644Z,56.50
2023-07-14T14:42:17.275Z,56.50
2023-07-14T14:44:44.996Z,56.70
2023-07-14T14:47:19.492Z,56.80
2023-07-14T14:49:46.887Z,56.90
2023-07-14T14:52:14.055Z,56.90
2023-07-14T14:54:41.942Z,56.90
2023-07-14T14:57:16.066Z,56.90
2023-07-14T14:59:46.397Z,57.00
2023-07-14T15:02:17.940Z,57.00
2023-07-14T15:04:45.157Z,57.00
2023-07-14T15:07:15.405Z,57.10
2023-07-14T15:09:42.740Z,57.30
2023-07-14T15:12:14.224Z,57.30
2023-07-14T15:14:43.607Z,57.20
2023-07-14T15:17:24.034Z,57.20
2023-07-14T15:19:50.998Z,57.10
2023-07-14T15:22:21.761Z,57.10
2023-07-14T15:24:51.096Z,57.10
2023-07-14T15:27:24.652Z,57.10
2023-07-14T15:29:53.434Z,57.10
2023-07-14T15:32:21.976Z,57.10
2023-07-14T15:34:49.089Z,57.00
2023-07-14T15:37:16.083Z,57.00
2023-07-14T15:39:42.948Z,57.00
2023-07-14T15:42:13.689Z,56.80
2023-07-14T15:44:41.215Z,56.80
2023-07-14T15:47:14.846Z,56.80
2023-07-14T15:49:43.213Z,56.90
2023-07-14T15:52:17.841Z,56.90
2023-07-14T15:54:45.023Z,57.10
2023-07-14T15:57:15.881Z,57.20
2023-07-14T15:59:42.862Z,57.20
2023-07-14T16:02:16.723Z,57.20
2023-07-14T16:04:45.121Z,57.10
2023-07-14T16:07:13.721Z,57.00
2023-07-14T16:09:41.593Z,57.00
2023-07-14T16:12:13.521Z,56.90
2023-07-14T16:14:40.455Z,56.70
2023-07-14T16:17:08.461Z,56.60
2023-07-14T16:19:36.754Z,56.60
2023-07-14T16:22:06.522Z,56.30
2023-07-14T16:24:37.199Z,56.20
2023-07-14T16:27:14.049Z,56.10
2023-07-14T16:29:40.963Z,56.00
2023-07-14T16:32:14.399Z,55.90
2023-07-14T16:34:43.535Z,55.80
2023-07-14T16:37:14.816Z,55.80
2023-07-14T16:39:44.802Z,55.70
2023-07-14T16:42:12.759Z,55.60
2023-07-14T16:44:39.677Z,55.50
2023-07-14T16:47:09.747Z,55.30
2023-07-14T16:49:36.827Z,55.10
2023-07-14T16:52:11.861Z,55.00
2023-07-14T16:54:40.144Z,54.80
2023-07-14T16:57:22.504Z,54.70
2023-07-14T16:59:49.398Z,54.60
2023-07-14T17:02:18.075Z,54.50
2023-07-14T17:04:45.034Z,54.40
2023-07-14T17:07:13.150Z,54.10
2023-07-14T17:09:42.619Z,53.90
2023-07-14T17:12:12.516Z,53.80
2023-07-14T17:14:39.554Z,53.80
2023-07-14T17:17:06.509Z,53.70
2023-07-14T17:19:33.542Z,53.60
2023-07-14T17:22:02.784Z,53.60
2023-07-14T17:24:30.403Z,53.60
2023-07-14T17:26:58.698Z,53.80
2023-07-14T17:29:29.030Z,53.80
2023-07-14T17:31:56.589Z,54.00
2023-07-14T17:34:23.980Z,54.10
2023-07-14T17:36:51.311Z,54.10
2023-07-14T17:39:39.842Z,54.20
2023-07-14T17:42:16.133Z,54.40
2023-07-14T17:44:43.032Z,54.50
2023-07-14T17:47:10.153Z,54.70
2023-07-14T17:49:37.079Z,54.60
2023-07-14T17:52:04.691Z,54.60
2023-07-14T17:54:31.832Z,54.70
2023-07-14T17:56:59.309Z,54.50
2023-07-14T17:59:28.668Z,54.50
2023-07-14T18:02:08.836Z,54.70
2023-07-14T18:04:36.353Z,54.60
2023-07-14T18:07:03.527Z,54.50
2023-07-14T18:09:30.413Z,54.60
2023-07-14T18:11:57.301Z,54.70
2023-07-14T18:14:24.629Z,54.70
2023-07-14T18:16:54.368Z,54.80
2023-07-14T18:19:22.694Z,54.70
2023-07-14T18:21:56.455Z,54.80
2023-07-14T18:24:41.826Z,54.90
2023-07-14T18:27:15.589Z,55.00
2023-07-14T18:29:42.551Z,55.70
2023-07-14T18:32:12.307Z,55.10
2023-07-14T18:34:39.183Z,55.20
2023-07-14T18:37:10.907Z,55.10
2023-07-14T18:39:38.074Z,55.20
2023-07-14T18:42:08.061Z,55.10
2023-07-14T18:44:34.989Z,55.10
2023-07-14T18:47:02.079Z,55.10
2023-07-14T18:49:31.006Z,55.20
2023-07-14T18:52:00.825Z,55.30
2023-07-14T18:54:28.478Z,55.30
2023-07-14T18:56:55.712Z,55.40
2023-07-14T18:59:23.260Z,55.40
2023-07-14T19:01:51.574Z,55.40
2023-07-14T19:04:23.897Z,55.50
2023-07-14T19:06:52.209Z,55.60
2023-07-14T19:09:20.715Z,55.60
2023-07-14T19:11:54.449Z,55.80
2023-07-14T19:14:21.725Z,55.80
2023-07-14T19:16:48.814Z,55.90
2023-07-14T19:19:17.483Z,55.90
2023-07-14T19:21:45.331Z,56.00
2023-07-14T19:24:15.896Z,56.10
2023-07-14T19:26:45.277Z,56.40
2023-07-14T19:29:16.332Z,56.90
2023-07-14T19:31:46.858Z,57.30
2023-07-14T19:34:18.511Z,57.70
2023-07-14T19:36:45.870Z,58.20
2023-07-14T19:39:14.597Z,58.40
2023-07-14T19:41:45.149Z,58.70
2023-07-14T19:44:12.920Z,59.00
2023-07-14T19:46:41.421Z,59.20
2023-07-14T19:49:08.429Z,59.40
2023-07-14T19:51:35.492Z,59.60
2023-07-14T19:54:02.942Z,60.00
2023-07-14T19:56:32.136Z,60.50
2023-07-14T19:59:00.183Z,61.30
2023-07-14T20:01:28.158Z,62.00
2023-07-14T20:03:55.287Z,62.80
2023-07-14T20:06:24.803Z,63.60
2023-07-14T20:08:54.253Z,64.30
2023-07-14T20:11:23.089Z,64.80
2023-07-14T20:13:51.737Z,65.40
2023-07-14T20:16:20.585Z,65.90
2023-07-14T20:18:49.243Z,66.60
2023-07-14T20:21:20.764Z,67.20
2023-07-14T20:23:48.201Z,67.90
2023-07-14T20:26:18.278Z,68.40
2023-07-14T20:28:47.662Z,68.90
2023-07-14T20:31:21.426Z,69.30
2023-07-14T20:33:49.697Z,69.60
2023-07-14T20:36:19.664Z,69.90
2023-07-14T20:38:46.761Z,70.30
2023-07-14T20:41:19.986Z,70.40
2023-07-14T20:43:48.239Z,70.90
2023-07-14T20:46:22.503Z,71.00
2023-07-14T20:48:55.783Z,71.30
2023-07-14T20:51:29.542Z,71.30
2023-07-14T20:53:56.580Z,71.40
2023-07-14T20:56:23.409Z,71.40
2023-07-14T20:58:50.841Z,71.40
2023-07-14T21:01:22.462Z,71.50
2023-07-14T21:03:50.875Z,72.40
2023-07-14T21:06:20.437Z,72.20
2023-07-14T21:08:48.196Z,72.10
2023-07-14T21:11:17.215Z,71.90
2023-07-14T21:13:48.349Z,72.00
2023-07-14T21:16:16.940Z,72.00
2023-07-14T21:18:45.383Z,72.00
2023-07-14T21:21:21.818Z,72.10
2023-07-14T21:23:48.737Z,72.10
2023-07-14T21:26:24.967Z,72.00
2023-07-14T21:28:54.349Z,72.20
2023-07-14T21:31:22.097Z,72.20
2023-07-14T21:33:50.477Z,72.40
2023-07-14T21:36:19.023Z,72.60
2023-07-14T21:38:47.039Z,72.50
2023-07-14T21:41:13.993Z,72.60
2023-07-14T21:43:44.053Z,72.70
2023-07-14T21:46:15.016Z,72.90
2023-07-14T21:48:42.157Z,72.90
2023-07-14T21:51:16.361Z,73.10
2023-07-14T21:53:45.756Z,73.40
2023-07-14T21:56:13.233Z,73.40
2023-07-14T21:58:40.691Z,73.40
2023-07-14T22:01:20.326Z,73.70
2023-07-14T22:03:47.309Z,73.90
2023-07-14T22:06:16.236Z,74.00
2023-07-14T22:08:43.171Z,74.20
2023-07-14T22:11:10.971Z,74.20
2023-07-14T22:13:39.027Z,74.10
2023-07-14T22:16:07.033Z,74.20
2023-07-14T22:18:45.902Z,74.30
2023-07-14T22:21:18.269Z,74.40
2023-07-14T22:23:45.843Z,74.40
2023-07-14T22:26:15.625Z,74.40
2023-07-14T22:28:43.137Z,74.70
2023-07-14T22:31:17.246Z,74.80
2023-07-14T22:33:46.438Z,75.10
2023-07-14T22:36:16.278Z,75.20
2023-07-14T22:38:43.477Z,75.30
2023-07-14T22:41:19.776Z,75.50
2023-07-14T22:43:47.626Z,75.70
2023-07-14T22:46:14.805Z,75.70
2023-07-14T22:48:41.871Z,75.80
2023-07-14T22:51:16.508Z,75.90
2023-07-14T22:53:43.489Z,76.20
2023-07-14T22:56:14.946Z,76.20
2023-07-14T22:58:45.610Z,76.30
2023-07-14T23:01:17.575Z,76.60
2023-07-14T23:03:46.136Z,76.60
2023-07-14T23:06:16.530Z,76.80
2023-07-14T23:08:43.580Z,77.00
2023-07-14T23:11:14.968Z,77.30
2023-07-14T23:13:41.855Z,77.50
2023-07-14T23:16:12.167Z,77.80
2023-07-14T23:18:39.647Z,78.20
2023-07-14T23:21:16.383Z,78.40
2023-07-14T23:23:43.637Z,78.70
2023-07-14T23:26:12.125Z,78.60
2023-07-14T23:28:39.656Z,78.80
2023-07-14T23:31:15.226Z,78.90
2023-07-14T23:33:42.128Z,79.10
2023-07-14T23:36:12.059Z,79.10
2023-07-14T23:38:41.853Z,79.30
2023-07-14T23:41:10.970Z,79.40
2023-07-14T23:43:40.379Z,79.60
2023-07-14T23:46:08.502Z,79.80
2023-07-14T23:48:39.653Z,80.00
2023-07-14T23:51:13.874Z,80.00
2023-07-14T23:53:42.503Z,80.30
2023-07-14T23:56:09.419Z,80.30
2023-07-14T23:58:36.451Z,80.40
